sensor_id;sensor_type;location;lat;lon;timestamp;P1;durP1;ratioP1;P2;durP2;ratioP2
25667;SDS011;18003;-33.830;151.202;2023-07-31T00:03:05;3.67;;;3.00;;
25667;SDS011;18003;-33.830;151.202;2023-07-31T00:08:17;2.70;;;2.50;;
25667;SDS011;18003;-33.830;151.202;2023-07-31T00:11:07;2.60;;;2.40;;
25667;SDS011;18003;-33.830;151.202;2023-07-31T00:13:54;3.30;;;3.00;;
25667;SDS011;18003;-33.830;151.202;2023-07-31T00:16:24;4.95;;;2.80;;
25667;SDS011;18003;-33.830;151.202;2023-07-31T00:18:54;2.80;;;2.60;;
25667;SDS011;18003;-33.830;151.202;2023-07-31T00:21:33;2.58;;;2.37;;
25667;SDS011;18003;-33.830;151.202;2023-07-31T00:27:16;2.50;;;2.30;;
25667;SDS011;18003;-33.830;151.202;2023-07-31T00:29:46;2.65;;;2.40;;
25667;SDS011;18003;-33.830;151.202;2023-07-31T00:34:54;3.00;;;2.80;;
25667;SDS011;18003;-33.830;151.202;2023-07-31T00:37:24;2.60;;;2.50;;
25667;SDS011;18003;-33.830;151.202;2023-07-31T00:39:58;2.80;;;2.50;;
25667;SDS011;18003;-33.830;151.202;2023-07-31T00:42:29;2.45;;;2.25;;
25667;SDS011;18003;-33.830;151.202;2023-07-31T00:44:59;3.10;;;2.80;;
25667;SDS011;18003;-33.830;151.202;2023-07-31T00:50:03;2.65;;;2.50;;
25667;SDS011;18003;-33.830;151.202;2023-07-31T00:52:35;2.50;;;2.40;;
25667;SDS011;18003;-33.830;151.202;2023-07-31T00:55:05;2.55;;;2.35;;
25667;SDS011;18003;-33.830;151.202;2023-07-31T00:57:36;3.27;;;3.08;;
25667;SDS011;18003;-33.830;151.202;2023-07-31T01:00:07;2.85;;;2.42;;
25667;SDS011;18003;-33.830;151.202;2023-07-31T01:02:38;3.30;;;3.00;;
25667;SDS011;18003;-33.830;151.202;2023-07-31T01:05:08;2.77;;;2.58;;
25667;SDS011;18003;-33.830;151.202;2023-07-31T01:10:34;3.00;;;2.80;;
25667;SDS011;18003;-33.830;151.202;2023-07-31T01:13:01;2.85;;;2.60;;
25667;SDS011;18003;-33.830;151.202;2023-07-31T01:15:31;4.33;;;2.62;;
25667;SDS011;18003;-33.830;151.202;2023-07-31T01:18:01;4.30;;;3.30;;
25667;SDS011;18003;-33.830;151.202;2023-07-31T01:20:31;3.75;;;3.12;;
25667;SDS011;18003;-33.830;151.202;2023-07-31T01:26:00;3.60;;;3.30;;
25667;SDS011;18003;-33.830;151.202;2023-07-31T01:28:55;4.10;;;3.80;;
25667;SDS011;18003;-33.830;151.202;2023-07-31T01:31:25;3.90;;;3.40;;
25667;SDS011;18003;-33.830;151.202;2023-07-31T01:33:56;3.87;;;3.30;;
25667;SDS011;18003;-33.830;151.202;2023-07-31T01:36:28;5.17;;;3.70;;
25667;SDS011;18003;-33.830;151.202;2023-07-31T01:38:59;3.67;;;3.20;;
25667;SDS011;18003;-33.830;151.202;2023-07-31T01:41:30;4.75;;;3.22;;
25667;SDS011;18003;-33.830;151.202;2023-07-31T01:44:00;3.27;;;3.00;;
25667;SDS011;18003;-33.830;151.202;2023-07-31T01:46:30;3.75;;;3.15;;
25667;SDS011;18003;-33.830;151.202;2023-07-31T01:49:00;5.30;;;3.30;;
25667;SDS011;18003;-33.830;151.202;2023-07-31T01:51:31;3.75;;;3.20;;
25667;SDS011;18003;-33.830;151.202;2023-07-31T01:54:01;3.10;;;2.90;;
25667;SDS011;18003;-33.830;151.202;2023-07-31T01:56:31;3.65;;;3.45;;
25667;SDS011;18003;-33.830;151.202;2023-07-31T01:59:01;3.15;;;2.92;;
25667;SDS011;18003;-33.830;151.202;2023-07-31T02:01:32;3.10;;;2.90;;
25667;SDS011;18003;-33.830;151.202;2023-07-31T02:04:02;3.30;;;3.00;;
25667;SDS011;18003;-33.830;151.202;2023-07-31T02:06:32;3.25;;;3.00;;
25667;SDS011;18003;-33.830;151.202;2023-07-31T02:09:02;3.20;;;2.90;;
25667;SDS011;18003;-33.830;151.202;2023-07-31T02:11:32;3.20;;;2.95;;
25667;SDS011;18003;-33.830;151.202;2023-07-31T02:14:02;3.42;;;3.17;;
25667;SDS011;18003;-33.830;151.202;2023-07-31T02:16:35;3.30;;;3.10;;
25667;SDS011;18003;-33.830;151.202;2023-07-31T02:21:56;3.22;;;3.00;;
25667;SDS011;18003;-33.830;151.202;2023-07-31T02:24:30;3.98;;;3.08;;
25667;SDS011;18003;-33.830;151.202;2023-07-31T02:27:00;3.90;;;3.08;;
25667;SDS011;18003;-33.830;151.202;2023-07-31T02:32:34;2.90;;;2.80;;
25667;SDS011;18003;-33.830;151.202;2023-07-31T02:37:55;3.12;;;2.92;;
25667;SDS011;18003;-33.830;151.202;2023-07-31T02:40:25;2.98;;;2.87;;
25667;SDS011;18003;-33.830;151.202;2023-07-31T02:42:55;3.22;;;3.02;;
25667;SDS011;18003;-33.830;151.202;2023-07-31T02:45:25;3.10;;;2.90;;
25667;SDS011;18003;-33.830;151.202;2023-07-31T02:47:55;3.50;;;3.20;;
25667;SDS011;18003;-33.830;151.202;2023-07-31T02:50:25;3.58;;;3.00;;
25667;SDS011;18003;-33.830;151.202;2023-07-31T02:52:55;3.45;;;3.10;;
25667;SDS011;18003;-33.830;151.202;2023-07-31T02:55:25;2.85;;;2.70;;
25667;SDS011;18003;-33.830;151.202;2023-07-31T02:57:55;3.47;;;3.08;;
25667;SDS011;18003;-33.830;151.202;2023-07-31T03:00:25;5.15;;;3.10;;
25667;SDS011;18003;-33.830;151.202;2023-07-31T03:02:55;4.55;;;3.27;;
25667;SDS011;18003;-33.830;151.202;2023-07-31T03:05:25;3.30;;;3.00;;
25667;SDS011;18003;-33.830;151.202;2023-07-31T03:07:55;2.80;;;2.60;;
25667;SDS011;18003;-33.830;151.202;2023-07-31T03:10:26;2.83;;;2.50;;
25667;SDS011;18003;-33.830;151.202;2023-07-31T03:12:56;3.90;;;3.20;;
25667;SDS011;18003;-33.830;151.202;2023-07-31T03:15:26;3.40;;;3.10;;
25667;SDS011;18003;-33.830;151.202;2023-07-31T03:17:56;3.33;;;2.87;;
25667;SDS011;18003;-33.830;151.202;2023-07-31T03:20:26;3.67;;;3.33;;
25667;SDS011;18003;-33.830;151.202;2023-07-31T03:22:56;3.25;;;3.05;;
25667;SDS011;18003;-33.830;151.202;2023-07-31T03:25:26;2.90;;;2.80;;
25667;SDS011;18003;-33.830;151.202;2023-07-31T03:27:56;3.45;;;3.17;;
25667;SDS011;18003;-33.830;151.202;2023-07-31T03:30:26;2.85;;;2.62;;
25667;SDS011;18003;-33.830;151.202;2023-07-31T03:32:56;3.00;;;2.80;;
25667;SDS011;18003;-33.830;151.202;2023-07-31T03:35:27;3.05;;;2.85;;
25667;SDS011;18003;-33.830;151.202;2023-07-31T03:37:57;2.80;;;2.60;;
25667;SDS011;18003;-33.830;151.202;2023-07-31T03:40:27;2.83;;;2.65;;
25667;SDS011;18003;-33.830;151.202;2023-07-31T03:42:57;3.00;;;2.80;;
25667;SDS011;18003;-33.830;151.202;2023-07-31T03:45:27;2.77;;;2.67;;
25667;SDS011;18003;-33.830;151.202;2023-07-31T03:47:57;2.85;;;2.65;;
25667;SDS011;18003;-33.830;151.202;2023-07-31T03:50:27;2.85;;;2.72;;
25667;SDS011;18003;-33.830;151.202;2023-07-31T03:52:57;3.35;;;2.90;;
25667;SDS011;18003;-33.830;151.202;2023-07-31T03:55:27;4.75;;;3.30;;
25667;SDS011;18003;-33.830;151.202;2023-07-31T03:57:58;5.40;;;3.20;;
25667;SDS011;18003;-33.830;151.202;2023-07-31T04:00:28;3.95;;;2.80;;
25667;SDS011;18003;-33.830;151.202;2023-07-31T04:02:58;3.45;;;2.72;;
25667;SDS011;18003;-33.830;151.202;2023-07-31T04:05:29;3.33;;;2.70;;
25667;SDS011;18003;-33.830;151.202;2023-07-31T04:08:00;3.08;;;2.55;;
25667;SDS011;18003;-33.830;151.202;2023-07-31T04:10:30;3.20;;;2.90;;
25667;SDS011;18003;-33.830;151.202;2023-07-31T04:13:00;2.50;;;2.40;;
25667;SDS011;18003;-33.830;151.202;2023-07-31T04:15:30;4.65;;;2.65;;
25667;SDS011;18003;-33.830;151.202;2023-07-31T04:18:00;2.70;;;2.50;;
25667;SDS011;18003;-33.830;151.202;2023-07-31T04:20:30;2.60;;;2.40;;
25667;SDS011;18003;-33.830;151.202;2023-07-31T04:23:00;14.20;;;2.77;;
25667;SDS011;18003;-33.830;151.202;2023-07-31T04:25:30;4.97;;;2.60;;
25667;SDS011;18003;-33.830;151.202;2023-07-31T04:28:01;3.77;;;2.30;;
25667;SDS011;18003;-33.830;151.202;2023-07-31T04:30:32;2.35;;;2.25;;
25667;SDS011;18003;-33.830;151.202;2023-07-31T04:33:02;2.75;;;2.58;;
25667;SDS011;18003;-33.830;151.202;2023-07-31T04:35:32;4.17;;;2.67;;
25667;SDS011;18003;-33.830;151.202;2023-07-31T04:38:03;2.50;;;2.30;;
25667;SDS011;18003;-33.830;151.202;2023-07-31T04:40:33;2.40;;;2.20;;
25667;SDS011;18003;-33.830;151.202;2023-07-31T04:43:03;2.67;;;2.20;;
25667;SDS011;18003;-33.830;151.202;2023-07-31T04:45:33;2.50;;;2.10;;
25667;SDS011;18003;-33.830;151.202;2023-07-31T04:48:03;2.25;;;2.15;;
25667;SDS011;18003;-33.830;151.202;2023-07-31T04:50:33;2.30;;;2.10;;
25667;SDS011;18003;-33.830;151.202;2023-07-31T04:53:03;2.60;;;2.40;;
25667;SDS011;18003;-33.830;151.202;2023-07-31T04:55:33;2.37;;;2.17;;
25667;SDS011;18003;-33.830;151.202;2023-07-31T04:58:03;2.80;;;2.22;;
25667;SDS011;18003;-33.830;151.202;2023-07-31T05:00:33;2.30;;;2.20;;
25667;SDS011;18003;-33.830;151.202;2023-07-31T05:03:03;2.60;;;2.50;;
25667;SDS011;18003;-33.830;151.202;2023-07-31T05:05:33;2.60;;;2.50;;
25667;SDS011;18003;-33.830;151.202;2023-07-31T05:08:04;2.40;;;2.30;;
25667;SDS011;18003;-33.830;151.202;2023-07-31T05:10:34;3.10;;;2.87;;
25667;SDS011;18003;-33.830;151.202;2023-07-31T05:13:04;2.92;;;2.70;;
25667;SDS011;18003;-33.830;151.202;2023-07-31T05:15:34;2.85;;;2.65;;
25667;SDS011;18003;-33.830;151.202;2023-07-31T05:18:04;2.75;;;2.50;;
25667;SDS011;18003;-33.830;151.202;2023-07-31T05:20:34;2.60;;;2.40;;
25667;SDS011;18003;-33.830;151.202;2023-07-31T05:23:04;2.95;;;2.47;;
25667;SDS011;18003;-33.830;151.202;2023-07-31T05:25:34;4.05;;;2.80;;
25667;SDS011;18003;-33.830;151.202;2023-07-31T05:28:04;3.87;;;2.70;;
25667;SDS011;18003;-33.830;151.202;2023-07-31T05:30:35;11.08;;;4.40;;
25667;SDS011;18003;-33.830;151.202;2023-07-31T05:33:04;15.50;;;6.12;;
25667;SDS011;18003;-33.830;151.202;2023-07-31T05:35:35;7.25;;;4.35;;
25667;SDS011;18003;-33.830;151.202;2023-07-31T05:38:05;9.35;;;4.47;;
25667;SDS011;18003;-33.830;151.202;2023-07-31T05:40:35;8.20;;;4.17;;
25667;SDS011;18003;-33.830;151.202;2023-07-31T05:43:05;8.20;;;4.05;;
25667;SDS011;18003;-33.830;151.202;2023-07-31T05:45:35;10.35;;;4.28;;
25667;SDS011;18003;-33.830;151.202;2023-07-31T05:48:05;10.13;;;4.22;;
25667;SDS011;18003;-33.830;151.202;2023-07-31T05:50:35;5.25;;;3.20;;
25667;SDS011;18003;-33.830;151.202;2023-07-31T05:53:06;4.70;;;3.05;;
25667;SDS011;18003;-33.830;151.202;2023-07-31T05:55:37;3.47;;;3.20;;
25667;SDS011;18003;-33.830;151.202;2023-07-31T05:58:07;3.92;;;2.67;;
25667;SDS011;18003;-33.830;151.202;2023-07-31T06:00:37;5.78;;;2.85;;
25667;SDS011;18003;-33.830;151.202;2023-07-31T06:03:07;7.15;;;2.50;;
25667;SDS011;18003;-33.830;151.202;2023-07-31T06:05:37;9.98;;;3.50;;
25667;SDS011;18003;-33.830;151.202;2023-07-31T06:08:08;15.18;;;5.00;;
25667;SDS011;18003;-33.830;151.202;2023-07-31T06:10:37;13.80;;;4.70;;
25667;SDS011;18003;-33.830;151.202;2023-07-31T06:13:08;15.23;;;4.45;;
25667;SDS011;18003;-33.830;151.202;2023-07-31T06:15:38;15.70;;;4.50;;
25667;SDS011;18003;-33.830;151.202;2023-07-31T06:18:08;12.33;;;4.67;;
25667;SDS011;18003;-33.830;151.202;2023-07-31T06:20:38;14.78;;;5.00;;
25667;SDS011;18003;-33.830;151.202;2023-07-31T06:23:09;11.65;;;4.90;;
25667;SDS011;18003;-33.830;151.202;2023-07-31T06:25:39;10.65;;;4.15;;
25667;SDS011;18003;-33.830;151.202;2023-07-31T06:28:09;11.33;;;4.15;;
25667;SDS011;18003;-33.830;151.202;2023-07-31T06:30:40;9.70;;;4.33;;
25667;SDS011;18003;-33.830;151.202;2023-07-31T06:33:10;10.65;;;3.98;;
25667;SDS011;18003;-33.830;151.202;2023-07-31T06:35:40;19.65;;;5.08;;
25667;SDS011;18003;-33.830;151.202;2023-07-31T06:38:10;13.90;;;4.87;;
25667;SDS011;18003;-33.830;151.202;2023-07-31T06:40:40;15.10;;;4.53;;
25667;SDS011;18003;-33.830;151.202;2023-07-31T06:43:10;16.48;;;5.10;;
25667;SDS011;18003;-33.830;151.202;2023-07-31T06:45:40;21.35;;;5.97;;
25667;SDS011;18003;-33.830;151.202;2023-07-31T06:48:10;14.45;;;4.95;;
25667;SDS011;18003;-33.830;151.202;2023-07-31T06:50:40;18.17;;;5.67;;
25667;SDS011;18003;-33.830;151.202;2023-07-31T06:53:10;10.15;;;5.03;;
25667;SDS011;18003;-33.830;151.202;2023-07-31T06:55:44;18.32;;;4.95;;
25667;SDS011;18003;-33.830;151.202;2023-07-31T06:58:15;12.15;;;4.62;;
25667;SDS011;18003;-33.830;151.202;2023-07-31T07:00:45;14.35;;;4.60;;
25667;SDS011;18003;-33.830;151.202;2023-07-31T07:03:17;13.68;;;4.35;;
25667;SDS011;18003;-33.830;151.202;2023-07-31T07:05:47;13.62;;;4.70;;
25667;SDS011;18003;-33.830;151.202;2023-07-31T07:08:18;8.20;;;4.33;;
25667;SDS011;18003;-33.830;151.202;2023-07-31T07:10:48;8.63;;;4.40;;
25667;SDS011;18003;-33.830;151.202;2023-07-31T07:13:18;10.28;;;4.90;;
25667;SDS011;18003;-33.830;151.202;2023-07-31T07:15:49;8.88;;;3.87;;
25667;SDS011;18003;-33.830;151.202;2023-07-31T07:18:19;7.80;;;3.90;;
25667;SDS011;18003;-33.830;151.202;2023-07-31T07:20:52;6.08;;;3.70;;
25667;SDS011;18003;-33.830;151.202;2023-07-31T07:23:23;5.08;;;3.60;;
25667;SDS011;18003;-33.830;151.202;2023-07-31T07:25:53;6.45;;;3.15;;
25667;SDS011;18003;-33.830;151.202;2023-07-31T07:28:23;7.92;;;3.15;;
25667;SDS011;18003;-33.830;151.202;2023-07-31T07:30:55;3.95;;;3.17;;
25667;SDS011;18003;-33.830;151.202;2023-07-31T07:33:25;5.80;;;3.20;;
25667;SDS011;18003;-33.830;151.202;2023-07-31T07:35:55;3.55;;;3.20;;
25667;SDS011;18003;-33.830;151.202;2023-07-31T07:38:29;5.17;;;3.50;;
25667;SDS011;18003;-33.830;151.202;2023-07-31T07:40:59;3.58;;;3.22;;
25667;SDS011;18003;-33.830;151.202;2023-07-31T07:43:29;5.20;;;3.60;;
25667;SDS011;18003;-33.830;151.202;2023-07-31T07:45:59;3.55;;;3.25;;
25667;SDS011;18003;-33.830;151.202;2023-07-31T07:48:29;3.83;;;3.47;;
25667;SDS011;18003;-33.830;151.202;2023-07-31T07:50:59;3.80;;;3.50;;
25667;SDS011;18003;-33.830;151.202;2023-07-31T07:53:31;6.25;;;3.67;;
25667;SDS011;18003;-33.830;151.202;2023-07-31T07:56:01;3.85;;;3.45;;
25667;SDS011;18003;-33.830;151.202;2023-07-31T07:58:31;4.50;;;3.55;;
25667;SDS011;18003;-33.830;151.202;2023-07-31T08:01:01;5.33;;;3.75;;
25667;SDS011;18003;-33.830;151.202;2023-07-31T08:03:31;5.20;;;3.30;;
25667;SDS011;18003;-33.830;151.202;2023-07-31T08:06:01;3.67;;;3.10;;
25667;SDS011;18003;-33.830;151.202;2023-07-31T08:08:31;3.60;;;3.30;;
25667;SDS011;18003;-33.830;151.202;2023-07-31T08:11:01;4.17;;;3.55;;
25667;SDS011;18003;-33.830;151.202;2023-07-31T08:13:31;3.83;;;3.50;;
25667;SDS011;18003;-33.830;151.202;2023-07-31T08:16:03;4.25;;;3.70;;
25667;SDS011;18003;-33.830;151.202;2023-07-31T08:18:33;3.90;;;3.60;;
25667;SDS011;18003;-33.830;151.202;2023-07-31T08:21:03;3.70;;;3.40;;
25667;SDS011;18003;-33.830;151.202;2023-07-31T08:23:33;4.20;;;3.72;;
25667;SDS011;18003;-33.830;151.202;2023-07-31T08:26:03;4.12;;;3.50;;
25667;SDS011;18003;-33.830;151.202;2023-07-31T08:28:33;6.87;;;4.28;;
25667;SDS011;18003;-33.830;151.202;2023-07-31T08:31:03;5.28;;;4.83;;
25667;SDS011;18003;-33.830;151.202;2023-07-31T08:33:33;6.53;;;5.78;;
25667;SDS011;18003;-33.830;151.202;2023-07-31T08:36:03;7.00;;;6.03;;
25667;SDS011;18003;-33.830;151.202;2023-07-31T08:38:34;8.43;;;6.42;;
25667;SDS011;18003;-33.830;151.202;2023-07-31T08:41:05;7.33;;;6.63;;
25667;SDS011;18003;-33.830;151.202;2023-07-31T08:43:35;6.75;;;6.00;;
25667;SDS011;18003;-33.830;151.202;2023-07-31T08:46:06;5.75;;;5.22;;
25667;SDS011;18003;-33.830;151.202;2023-07-31T08:48:36;6.55;;;5.60;;
25667;SDS011;18003;-33.830;151.202;2023-07-31T08:51:07;7.37;;;6.00;;
25667;SDS011;18003;-33.830;151.202;2023-07-31T08:53:37;6.25;;;5.67;;
25667;SDS011;18003;-33.830;151.202;2023-07-31T08:56:07;6.33;;;5.30;;
25667;SDS011;18003;-33.830;151.202;2023-07-31T08:58:37;5.37;;;4.87;;
25667;SDS011;18003;-33.830;151.202;2023-07-31T09:01:08;6.10;;;4.70;;
25667;SDS011;18003;-33.830;151.202;2023-07-31T09:03:39;5.08;;;4.30;;
25667;SDS011;18003;-33.830;151.202;2023-07-31T09:06:10;5.53;;;4.42;;
25667;SDS011;18003;-33.830;151.202;2023-07-31T09:08:41;4.25;;;3.85;;
25667;SDS011;18003;-33.830;151.202;2023-07-31T09:11:11;3.90;;;3.50;;
25667;SDS011;18003;-33.830;151.202;2023-07-31T09:13:42;4.75;;;3.67;;
25667;SDS011;18003;-33.830;151.202;2023-07-31T09:16:13;5.53;;;3.25;;
25667;SDS011;18003;-33.830;151.202;2023-07-31T09:18:56;5.42;;;3.50;;
25667;SDS011;18003;-33.830;151.202;2023-07-31T09:21:27;4.78;;;3.10;;
25667;SDS011;18003;-33.830;151.202;2023-07-31T09:23:57;3.65;;;2.80;;
25667;SDS011;18003;-33.830;151.202;2023-07-31T09:26:30;3.30;;;3.02;;
25667;SDS011;18003;-33.830;151.202;2023-07-31T09:29:01;3.22;;;2.92;;
25667;SDS011;18003;-33.830;151.202;2023-07-31T09:31:39;2.80;;;2.60;;
25667;SDS011;18003;-33.830;151.202;2023-07-31T09:34:09;3.33;;;2.55;;
25667;SDS011;18003;-33.830;151.202;2023-07-31T09:36:45;2.60;;;2.40;;
25667;SDS011;18003;-33.830;151.202;2023-07-31T09:39:12;2.92;;;2.60;;
25667;SDS011;18003;-33.830;151.202;2023-07-31T09:41:45;5.47;;;2.85;;
25667;SDS011;18003;-33.830;151.202;2023-07-31T09:44:15;5.28;;;2.77;;
25667;SDS011;18003;-33.830;151.202;2023-07-31T09:46:45;4.45;;;3.02;;
25667;SDS011;18003;-33.830;151.202;2023-07-31T09:49:16;5.13;;;3.10;;
25667;SDS011;18003;-33.830;151.202;2023-07-31T09:51:46;4.50;;;3.30;;
25667;SDS011;18003;-33.830;151.202;2023-07-31T09:54:16;5.00;;;3.52;;
25667;SDS011;18003;-33.830;151.202;2023-07-31T09:56:47;5.03;;;3.87;;
25667;SDS011;18003;-33.830;151.202;2023-07-31T09:59:17;6.33;;;4.05;;
25667;SDS011;18003;-33.830;151.202;2023-07-31T10:01:47;5.33;;;3.83;;
25667;SDS011;18003;-33.830;151.202;2023-07-31T10:04:18;4.80;;;3.90;;
25667;SDS011;18003;-33.830;151.202;2023-07-31T10:06:51;4.67;;;3.85;;
25667;SDS011;18003;-33.830;151.202;2023-07-31T10:09:22;6.85;;;4.00;;
25667;SDS011;18003;-33.830;151.202;2023-07-31T10:11:56;4.70;;;3.83;;
25667;SDS011;18003;-33.830;151.202;2023-07-31T10:14:26;6.92;;;4.17;;
25667;SDS011;18003;-33.830;151.202;2023-07-31T10:16:57;6.80;;;4.55;;
25667;SDS011;18003;-33.830;151.202;2023-07-31T10:19:28;5.40;;;4.30;;
25667;SDS011;18003;-33.830;151.202;2023-07-31T10:21:59;5.42;;;4.22;;
25667;SDS011;18003;-33.830;151.202;2023-07-31T10:24:31;4.65;;;4.10;;
25667;SDS011;18003;-33.830;151.202;2023-07-31T10:27:03;6.72;;;4.20;;
25667;SDS011;18003;-33.830;151.202;2023-07-31T10:29:34;5.62;;;4.70;;
25667;SDS011;18003;-33.830;151.202;2023-07-31T10:32:06;6.00;;;5.08;;
25667;SDS011;18003;-33.830;151.202;2023-07-31T10:34:38;5.53;;;4.50;;
25667;SDS011;18003;-33.830;151.202;2023-07-31T10:37:24;8.20;;;4.57;;
25667;SDS011;18003;-33.830;151.202;2023-07-31T10:42:33;5.95;;;4.40;;
25667;SDS011;18003;-33.830;151.202;2023-07-31T10:45:09;4.65;;;3.87;;
25667;SDS011;18003;-33.830;151.202;2023-07-31T10:50:13;5.58;;;4.30;;
25667;SDS011;18003;-33.830;151.202;2023-07-31T10:52:48;5.28;;;4.78;;
25667;SDS011;18003;-33.830;151.202;2023-07-31T10:58:18;6.83;;;4.72;;
25667;SDS011;18003;-33.830;151.202;2023-07-31T11:00:46;7.12;;;4.17;;
25667;SDS011;18003;-33.830;151.202;2023-07-31T11:03:16;6.45;;;4.40;;
25667;SDS011;18003;-33.830;151.202;2023-07-31T11:05:48;6.00;;;4.47;;
25667;SDS011;18003;-33.830;151.202;2023-07-31T11:08:26;7.28;;;4.58;;
25667;SDS011;18003;-33.830;151.202;2023-07-31T11:11:14;6.62;;;4.08;;
25667;SDS011;18003;-33.830;151.202;2023-07-31T11:13:54;6.10;;;4.40;;
25667;SDS011;18003;-33.830;151.202;2023-07-31T11:16:10;6.58;;;4.40;;
25667;SDS011;18003;-33.830;151.202;2023-07-31T11:18:41;5.20;;;4.27;;
25667;SDS011;18003;-33.830;151.202;2023-07-31T11:21:15;7.08;;;4.58;;
25667;SDS011;18003;-33.830;151.202;2023-07-31T11:23:45;6.00;;;4.55;;
25667;SDS011;18003;-33.830;151.202;2023-07-31T11:26:16;6.33;;;4.45;;
25667;SDS011;18003;-33.830;151.202;2023-07-31T11:28:49;7.17;;;4.37;;
25667;SDS011;18003;-33.830;151.202;2023-07-31T11:31:20;6.60;;;4.78;;
25667;SDS011;18003;-33.830;151.202;2023-07-31T11:33:50;5.67;;;4.33;;
25667;SDS011;18003;-33.830;151.202;2023-07-31T11:36:21;9.43;;;4.95;;
25667;SDS011;18003;-33.830;151.202;2023-07-31T11:38:50;7.53;;;5.20;;
25667;SDS011;18003;-33.830;151.202;2023-07-31T11:41:20;5.92;;;4.28;;
25667;SDS011;18003;-33.830;151.202;2023-07-31T11:43:51;6.62;;;4.58;;
25667;SDS011;18003;-33.830;151.202;2023-07-31T11:46:22;7.55;;;4.83;;
25667;SDS011;18003;-33.830;151.202;2023-07-31T11:48:52;6.25;;;4.50;;
25667;SDS011;18003;-33.830;151.202;2023-07-31T11:53:53;5.25;;;3.95;;
25667;SDS011;18003;-33.830;151.202;2023-07-31T11:56:24;4.70;;;4.10;;
25667;SDS011;18003;-33.830;151.202;2023-07-31T11:58:59;5.55;;;4.03;;
25667;SDS011;18003;-33.830;151.202;2023-07-31T12:01:29;5.25;;;3.95;;
25667;SDS011;18003;-33.830;151.202;2023-07-31T12:04:01;4.03;;;3.60;;
25667;SDS011;18003;-33.830;151.202;2023-07-31T12:06:34;6.65;;;4.20;;
25667;SDS011;18003;-33.830;151.202;2023-07-31T12:09:04;5.12;;;3.60;;
25667;SDS011;18003;-33.830;151.202;2023-07-31T12:11:46;6.17;;;4.28;;
25667;SDS011;18003;-33.830;151.202;2023-07-31T12:14:24;5.22;;;4.42;;
25667;SDS011;18003;-33.830;151.202;2023-07-31T12:17:04;6.95;;;4.00;;
25667;SDS011;18003;-33.830;151.202;2023-07-31T12:19:28;6.12;;;4.17;;
25667;SDS011;18003;-33.830;151.202;2023-07-31T12:21:58;4.67;;;4.03;;
25667;SDS011;18003;-33.830;151.202;2023-07-31T12:24:28;5.10;;;4.10;;
25667;SDS011;18003;-33.830;151.202;2023-07-31T12:26:58;4.30;;;3.90;;
25667;SDS011;18003;-33.830;151.202;2023-07-31T12:29:34;6.87;;;4.05;;
25667;SDS011;18003;-33.830;151.202;2023-07-31T12:32:04;4.87;;;3.98;;
25667;SDS011;18003;-33.830;151.202;2023-07-31T12:34:41;5.92;;;4.10;;
25667;SDS011;18003;-33.830;151.202;2023-07-31T12:39:35;5.10;;;3.92;;
25667;SDS011;18003;-33.830;151.202;2023-07-31T12:42:05;5.15;;;3.80;;
25667;SDS011;18003;-33.830;151.202;2023-07-31T12:44:35;5.62;;;4.33;;
25667;SDS011;18003;-33.830;151.202;2023-07-31T12:47:05;5.60;;;4.45;;
25667;SDS011;18003;-33.830;151.202;2023-07-31T12:49:35;5.97;;;4.25;;
25667;SDS011;18003;-33.830;151.202;2023-07-31T12:52:05;5.05;;;4.20;;
25667;SDS011;18003;-33.830;151.202;2023-07-31T12:54:35;5.47;;;3.92;;
25667;SDS011;18003;-33.830;151.202;2023-07-31T12:57:05;5.42;;;4.17;;
25667;SDS011;18003;-33.830;151.202;2023-07-31T12:59:35;4.83;;;4.33;;
25667;SDS011;18003;-33.830;151.202;2023-07-31T13:02:05;5.08;;;4.37;;
25667;SDS011;18003;-33.830;151.202;2023-07-31T13:04:35;5.42;;;4.25;;
25667;SDS011;18003;-33.830;151.202;2023-07-31T13:07:05;8.98;;;4.37;;
25667;SDS011;18003;-33.830;151.202;2023-07-31T13:09:35;5.80;;;4.30;;
25667;SDS011;18003;-33.830;151.202;2023-07-31T13:12:05;6.42;;;4.37;;
25667;SDS011;18003;-33.830;151.202;2023-07-31T13:14:35;4.97;;;4.50;;
25667;SDS011;18003;-33.830;151.202;2023-07-31T13:17:05;7.78;;;4.17;;
25667;SDS011;18003;-33.830;151.202;2023-07-31T13:19:35;5.62;;;4.05;;
25667;SDS011;18003;-33.830;151.202;2023-07-31T13:22:04;5.12;;;4.10;;
25667;SDS011;18003;-33.830;151.202;2023-07-31T13:24:34;4.80;;;3.90;;
25667;SDS011;18003;-33.830;151.202;2023-07-31T13:27:04;4.20;;;3.62;;
25667;SDS011;18003;-33.830;151.202;2023-07-31T13:29:34;4.20;;;3.80;;
25667;SDS011;18003;-33.830;151.202;2023-07-31T13:32:04;3.75;;;3.45;;
25667;SDS011;18003;-33.830;151.202;2023-07-31T13:34:34;4.22;;;3.83;;
25667;SDS011;18003;-33.830;151.202;2023-07-31T13:37:04;4.92;;;4.00;;
25667;SDS011;18003;-33.830;151.202;2023-07-31T13:39:34;5.90;;;4.00;;
25667;SDS011;18003;-33.830;151.202;2023-07-31T13:42:03;4.08;;;3.67;;
25667;SDS011;18003;-33.830;151.202;2023-07-31T13:44:42;3.70;;;3.40;;
25667;SDS011;18003;-33.830;151.202;2023-07-31T13:47:09;5.25;;;3.77;;
25667;SDS011;18003;-33.830;151.202;2023-07-31T13:49:39;3.70;;;3.40;;
25667;SDS011;18003;-33.830;151.202;2023-07-31T13:52:09;7.33;;;3.42;;
25667;SDS011;18003;-33.830;151.202;2023-07-31T13:54:39;3.85;;;3.10;;
25667;SDS011;18003;-33.830;151.202;2023-07-31T13:57:09;4.62;;;3.50;;
25667;SDS011;18003;-33.830;151.202;2023-07-31T13:59:39;3.55;;;3.08;;
25667;SDS011;18003;-33.830;151.202;2023-07-31T14:02:09;3.90;;;3.40;;
25667;SDS011;18003;-33.830;151.202;2023-07-31T14:04:40;4.47;;;3.40;;
25667;SDS011;18003;-33.830;151.202;2023-07-31T14:07:10;4.03;;;2.80;;
25667;SDS011;18003;-33.830;151.202;2023-07-31T14:09:40;3.90;;;3.10;;
25667;SDS011;18003;-33.830;151.202;2023-07-31T14:12:10;3.60;;;2.87;;
25667;SDS011;18003;-33.830;151.202;2023-07-31T14:14:40;3.67;;;2.92;;
25667;SDS011;18003;-33.830;151.202;2023-07-31T14:17:10;4.50;;;2.90;;
25667;SDS011;18003;-33.830;151.202;2023-07-31T14:19:40;3.92;;;3.12;;
25667;SDS011;18003;-33.830;151.202;2023-07-31T14:22:10;6.12;;;3.15;;
25667;SDS011;18003;-33.830;151.202;2023-07-31T14:24:41;4.08;;;3.30;;
25667;SDS011;18003;-33.830;151.202;2023-07-31T14:27:11;4.12;;;3.00;;
25667;SDS011;18003;-33.830;151.202;2023-07-31T14:29:41;4.08;;;3.40;;
25667;SDS011;18003;-33.830;151.202;2023-07-31T14:32:11;3.52;;;3.27;;
25667;SDS011;18003;-33.830;151.202;2023-07-31T14:34:41;3.92;;;3.25;;
25667;SDS011;18003;-33.830;151.202;2023-07-31T14:37:14;3.83;;;3.35;;
25667;SDS011;18003;-33.830;151.202;2023-07-31T14:39:46;4.78;;;3.27;;
25667;SDS011;18003;-33.830;151.202;2023-07-31T14:42:17;3.37;;;2.97;;
25667;SDS011;18003;-33.830;151.202;2023-07-31T14:44:47;3.58;;;3.00;;
25667;SDS011;18003;-33.830;151.202;2023-07-31T14:47:17;3.20;;;2.70;;
25667;SDS011;18003;-33.830;151.202;2023-07-31T14:49:47;3.25;;;2.70;;
25667;SDS011;18003;-33.830;151.202;2023-07-31T14:52:17;3.05;;;2.70;;
25667;SDS011;18003;-33.830;151.202;2023-07-31T14:54:48;4.62;;;2.85;;
25667;SDS011;18003;-33.830;151.202;2023-07-31T14:57:18;3.30;;;3.00;;
25667;SDS011;18003;-33.830;151.202;2023-07-31T14:59:48;3.25;;;2.92;;
25667;SDS011;18003;-33.830;151.202;2023-07-31T15:02:18;3.22;;;2.90;;
25667;SDS011;18003;-33.830;151.202;2023-07-31T15:04:48;4.97;;;3.10;;
25667;SDS011;18003;-33.830;151.202;2023-07-31T15:07:22;4.87;;;3.27;;
25667;SDS011;18003;-33.830;151.202;2023-07-31T15:09:52;3.10;;;2.80;;